Time;durP1;ratioP1;P1;durP2;ratioP2;P2;SDS_P1;SDS_P2;PMS_P1;PMS_P2;Temp;Humidity;BMP_temperature;BMP_pressure;BME280_temperature;BME280_humidity;BME280_pressure;Samples;Min_cycle;Max_cycle;Signal;HPM_P1;HPM_P2
2023/06/23 00:03:54;;;;;;;1.35;0.80;;;;;;;21.78;59.02;96900.31;10371458;28;20468;-31
2023/06/23 00:08:54;;;;;;;1.48;0.93;;;;;;;21.79;59.60;96918.16;10392530;28;20072;-31
2023/06/23 00:13:56;;;;;;;0.70;0.70;;;;;;;22.03;59.85;96912.81;10366369;28;20034;-32
2023/06/23 00:18:57;;;;;;;1.05;0.88;;;;;;;22.10;59.16;96916.13;10369522;28;20046;-31
2023/06/23 00:23:57;;;;;;;1.20;0.73;;;;;;;21.97;59.68;96917.97;10367635;28;20433;-32
2023/06/23 00:28:57;;;;;;;1.07;0.97;;;;;;;21.89;59.29;96937.59;10369067;28;20413;-32
2023/06/23 00:33:58;;;;;;;0.60;0.60;;;;;;;21.85;58.95;96937.63;10365620;28;20619;-32
2023/06/23 00:38:58;;;;;;;3.07;0.80;;;;;;;21.81;59.25;96954.66;10365998;28;20293;-32
2023/06/23 00:43:59;;;;;;;0.47;0.47;;;;;;;21.80;58.91;96955.53;10373598;28;20048;-32
2023/06/23 00:49:00;;;;;;;1.42;0.77;;;;;;;21.79;58.74;96976.78;10343196;28;20061;-32
2023/06/23 00:54:00;;;;;;;0.85;0.70;;;;;;;21.76;58.60;97006.53;10366877;28;20040;-32
2023/06/23 00:59:02;;;;;;;0.57;0.57;;;;;;;21.98;59.80;97008.06;10383262;28;20056;-32
2023/06/23 01:04:03;;;;;;;0.93;0.63;;;;;;;22.10;59.08;97008.78;10360957;28;20486;-31
2023/06/23 01:09:42;;;;;;;0.80;0.60;;;;;;;22.00;59.46;97017.38;10390519;28;20092;-32
2023/06/23 01:14:54;;;;;;;0.60;0.60;;;;;;;21.88;59.00;97027.66;10388963;28;20116;-31
2023/06/23 01:20:15;;;;;;;0.70;0.60;;;;;;;21.82;58.73;97031.97;10353879;28;20037;-33
2023/06/23 01:25:46;;;;;;;0.68;0.68;;;;;;;21.78;58.62;97036.25;10373067;28;20317;-31
2023/06/23 01:30:53;;;;;;;1.02;0.90;;;;;;;21.76;58.74;97045.63;10341996;28;20402;-32
2023/06/23 01:36:03;;;;;;;2.42;0.70;;;;;;;21.74;58.57;97044.78;10354592;28;20036;-33
2023/06/23 01:41:11;;;;;;;2.08;0.75;;;;;;;21.76;58.66;97053.28;10366151;28;20037;-31
2023/06/23 01:46:16;;;;;;;1.33;1.10;;;;;;;21.97;60.22;97057.34;10364077;28;20029;-33
2023/06/23 01:51:18;;;;;;;1.83;0.95;;;;;;;22.08;58.82;97048.72;10365246;28;20038;-32
2023/06/23 01:56:21;;;;;;;1.55;1.40;;;;;;;21.98;59.22;97051.41;10382718;28;20096;-31
2023/06/23 02:01:24;;;;;;;0.57;0.57;;;;;;;21.90;59.07;97060.81;10366722;28;20100;-32
2023/06/23 02:06:26;;;;;;;1.80;1.20;;;;;;;21.86;59.25;97059.97;10365491;28;20029;-32
2023/06/23 02:11:27;;;;;;;1.88;1.38;;;;;;;21.87;59.17;97071.88;10369831;28;20092;-32
2023/06/23 02:16:33;;;;;;;1.55;1.42;;;;;;;21.86;59.03;97085.47;10387058;28;20050;-31
2023/06/23 02:21:35;;;;;;;4.50;1.85;;;;;;;21.85;58.88;97091.44;10377407;28;20485;-32
2023/06/23 02:26:37;;;;;;;2.13;1.70;;;;;;;21.83;59.13;97093.16;10388756;28;20501;-32
2023/06/23 02:31:38;;;;;;;2.47;1.58;;;;;;;21.97;60.63;97093.88;10397192;28;20167;-31
2023/06/23 02:36:47;;;;;;;0.97;0.83;;;;;;;22.11;59.73;97097.19;10384002;28;20030;-32
2023/06/23 02:41:54;;;;;;;1.27;1.13;;;;;;;21.99;59.67;97094.72;10383610;28;20803;-32
2023/06/23 02:46:57;;;;;;;1.40;1.00;;;;;;;21.91;59.36;97090.53;10338334;28;20025;-32
2023/06/23 02:52:03;;;;;;;1.50;1.23;;;;;;;21.85;59.04;97109.28;10372472;28;20120;-34
2023/06/23 02:57:06;;;;;;;1.55;1.35;;;;;;;21.81;59.02;97117.78;10371261;28;20036;-32
2023/06/23 03:02:09;;;;;;;1.95;1.52;;;;;;;21.79;58.67;97111.00;10371889;28;20037;-32
2023/06/23 03:07:10;;;;;;;2.50;1.20;;;;;;;21.77;58.56;97121.22;10390101;28;20084;-32
2023/06/23 03:12:12;;;;;;;1.45;1.23;;;;;;;21.75;58.52;97128.06;10356034;28;20038;-32
2023/06/23 03:17:14;;;;;;;1.20;1.08;;;;;;;21.87;59.42;97127.97;10344756;28;20030;-32
2023/06/23 03:22:29;;;;;;;1.25;1.15;;;;;;;22.06;59.22;97137.16;10388501;28;20045;-32
2023/06/23 03:27:32;;;;;;;1.15;0.90;;;;;;;22.00;58.93;97139.78;10361446;28;20038;-33
2023/06/23 03:32:38;;;;;;;1.88;0.80;;;;;;;21.88;58.88;97144.94;10373856;28;20033;-33
2023/06/23 03:37:49;;;;;;;1.33;1.23;;;;;;;21.82;58.83;97155.16;10379390;28;20030;-32
2023/06/23 03:43:08;;;;;;;1.48;0.93;;;;;;;21.79;58.87;97160.28;10393185;28;20482;-31
2023/06/23 03:48:11;;;;;;;2.55;2.00;;;;;;;22.20;65.13;97160.88;10388735;28;20041;-31
2023/06/23 03:53:13;;;;;;;5.45;4.93;;;;;;;22.15;64.53;97167.69;10386820;28;20034;-32
2023/06/23 03:58:16;;;;;;;5.93;5.38;;;;;;;22.08;64.93;97176.25;10365406;28;20042;-33
2023/06/23 04:03:19;;;;;;;6.65;6.03;;;;;;;22.03;65.44;97189.88;10385200;28;20026;-32
2023/06/23 04:08:21;;;;;;;6.60;5.88;;;;;;;22.01;65.25;97187.38;10378438;28;20112;-32
2023/06/23 04:13:25;;;;;;;7.10;6.47;;;;;;;21.97;65.17;97188.22;10394508;28;20405;-31
2023/06/23 04:18:27;;;;;;;9.00;7.22;;;;;;;21.90;65.20;97199.31;10367847;28;20026;-32
2023/06/23 04:23:30;;;;;;;9.50;6.95;;;;;;;21.90;65.27;97206.97;10366118;28;20040;-32
2023/06/23 04:28:33;;;;;;;7.78;6.90;;;;;;;21.80;65.87;97196.84;10386983;28;20122;-32
2023/06/23 04:33:35;;;;;;;7.97;7.13;;;;;;;21.77;66.11;97207.03;10369407;28;20497;-32
2023/06/23 04:38:37;;;;;;;7.53;6.55;;;;;;;21.77;66.41;97214.69;10381386;28;20117;-32
2023/06/23 04:43:43;;;;;;;7.50;6.68;;;;;;;21.77;66.58;97217.22;10374959;28;20414;-32
2023/06/23 04:48:51;;;;;;;7.43;6.33;;;;;;;21.87;66.67;97216.31;10375119;28;20029;-32
2023/06/23 04:53:56;;;;;;;10.88;7.82;;;;;;;21.89;66.58;97228.22;10366794;28;20030;-31
2023/06/23 04:59:00;;;;;;;9.70;7.47;;;;;;;21.78;66.14;97224.88;10354489;28;20030;-31
2023/06/23 05:04:03;;;;;;;8.45;7.43;;;;;;;21.70;65.81;97234.25;10366257;28;20053;-31
2023/06/23 05:09:05;;;;;;;9.45;7.57;;;;;;;21.66;65.32;97219.00;10374686;28;20068;-33
2023/06/23 05:14:07;;;;;;;10.25;7.25;;;;;;;21.63;65.51;97224.91;10366141;28;20040;-32
2023/06/23 05:19:10;;;;;;;8.75;7.60;;;;;;;21.60;64.51;97229.16;10366077;28;20037;-31
2023/06/23 05:24:12;;;;;;;16.42;8.77;;;;;;;21.61;66.43;97226.63;10374221;28;20041;-32
2023/06/23 05:29:17;;;;;;;10.45;4.85;;;;;;;21.55;63.44;97231.75;10366054;28;20042;-31
2023/06/23 05:34:19;;;;;;;5.07;4.00;;;;;;;21.65;62.62;97235.97;10373245;28;20038;-31
2023/06/23 05:39:22;;;;;;;8.82;5.38;;;;;;;21.82;65.78;97235.91;10365965;28;20034;-32
2023/06/23 05:44:22;;;;;;;4.97;4.40;;;;;;;21.91;64.68;97244.34;10353182;28;20073;-32
2023/06/23 05:49:25;;;;;;;4.25;3.67;;;;;;;21.82;62.08;97252.03;10381399;28;20100;-31
2023/06/23 05:54:27;;;;;;;4.30;3.90;;;;;;;21.78;62.28;97254.59;10370959;28;20034;-32
2023/06/23 05:59:42;;;;;;;3.38;3.08;;;;;;;21.72;61.48;97255.50;10374992;28;20108;-32
2023/06/23 06:04:45;;;;;;;4.18;3.40;;;;;;;21.71;61.26;97260.63;10378619;28;20121;-32
2023/06/23 06:09:48;;;;;;;4.25;3.00;;;;;;;21.72;61.04;97267.41;10381753;28;20030;-31
2023/06/23 06:14:50;;;;;;;3.90;2.75;;;;;;;21.70;60.87;97277.59;10372835;28;20057;-32
2023/06/23 06:19:55;;;;;;;3.63;3.05;;;;;;;21.70;60.72;97287.78;10372667;28;20396;-32
2023/06/23 06:24:57;;;;;;;5.75;4.30;;;;;;;21.86;62.33;97298.75;10373929;28;20041;-31
2023/06/23 06:29:58;;;;;;;6.00;4.35;;;;;;;21.96;63.33;97298.72;10385451;28;20083;-31
2023/06/23 06:35:04;;;;;;;3.85;3.30;;;;;;;21.90;61.66;97303.00;10384659;28;20147;-32
2023/06/23 06:40:06;;;;;;;3.67;3.08;;;;;;;21.81;60.67;97303.88;10371703;28;20092;-32
2023/06/23 06:45:08;;;;;;;5.63;3.03;;;;;;;21.76;60.60;97318.38;10378019;28;20416;-32
2023/06/23 06:50:10;;;;;;;3.17;2.80;;;;;;;21.75;60.56;97333.66;10374409;28;20092;-32
2023/06/23 06:55:18;;;;;;;2.95;2.67;;;;;;;21.74;60.65;97334.50;10387195;28;20072;-32
2023/06/23 07:00:21;;;;;;;9.93;7.97;;;;;;;21.83;65.42;97335.34;10377953;28;20505;-32
2023/06/23 07:05:21;;;;;;;12.23;9.77;;;;;;;21.78;64.70;97349.78;10378768;28;20045;-32
2023/06/23 07:10:22;;;;;;;8.80;7.90;;;;;;;21.69;63.73;97352.38;10363821;28;20545;-32
2023/06/23 07:15:23;;;;;;;9.45;8.15;;;;;;;21.66;62.66;97356.63;10378442;28;20350;-32
2023/06/23 07:20:23;;;;;;;9.07;8.07;;;;;;;21.58;61.99;97358.31;10371614;28;20041;-31
2023/06/23 07:25:23;;;;;;;10.57;6.80;;;;;;;21.56;62.25;97360.00;10378008;28;20084;-32
2023/06/23 07:30:24;;;;;;;8.70;6.53;;;;;;;21.53;61.83;97375.28;10362417;28;20116;-32
2023/06/23 07:35:24;;;;;;;7.20;6.10;;;;;;;21.48;60.67;97357.47;10363655;28;20029;-32
2023/06/23 07:40:24;;;;;;;7.93;5.53;;;;;;;21.52;60.46;97371.91;10377526;28;20092;-32
2023/06/23 07:45:25;;;;;;;8.30;5.50;;;;;;;21.54;59.81;97371.88;10371006;28;20038;-32
2023/06/23 07:50:26;;;;;;;7.87;6.00;;;;;;;21.57;59.87;97393.13;10353620;28;20125;-31
2023/06/23 07:55:26;;;;;;;6.63;5.10;;;;;;;21.50;60.41;97390.59;10377947;28;20112;-31
2023/06/23 08:00:27;;;;;;;6.20;4.33;;;;;;;21.67;60.42;97404.19;10375576;28;20033;-31
2023/06/23 08:05:28;;;;;;;8.13;5.20;;;;;;;21.70;59.68;97406.72;10369145;28;20765;-32
2023/06/23 08:10:30;;;;;;;13.60;5.20;;;;;;;21.60;59.80;97398.22;10368678;28;20038;-31
2023/06/23 08:15:30;;;;;;;9.40;5.03;;;;;;;21.72;59.63;97400.78;10376018;28;20382;-33
2023/06/23 08:20:31;;;;;;;6.67;4.80;;;;;;;21.60;60.07;97403.31;10369717;28;20468;-31
2023/06/23 08:25:32;;;;;;;10.50;4.83;;;;;;;21.83;58.81;97403.31;10384352;28;20525;-31
2023/06/23 08:30:32;;;;;;;5.28;3.50;;;;;;;21.79;58.57;97392.25;10368821;28;20052;-32
2023/06/23 08:35:33;;;;;;;5.07;3.87;;;;;;;21.71;59.41;97396.53;10382152;28;20441;-32
2023/06/23 08:40:34;;;;;;;5.37;3.30;;;;;;;21.69;59.53;97408.44;10368681;28;20387;-32
2023/06/23 08:45:41;;;;;;;5.45;3.60;;;;;;;21.81;59.71;97410.13;10380402;28;20796;-32
2023/06/23 08:50:42;;;;;;;11.98;5.07;;;;;;;21.82;59.50;97414.38;10373150;28;20044;-32
2023/06/23 08:55:43;;;;;;;9.75;4.20;;;;;;;21.76;59.91;97410.13;10369502;28;20498;-31
2023/06/23 09:00:43;;;;;;;6.97;3.78;;;;;;;21.71;59.82;97422.03;10367831;28;20057;-32
2023/06/23 09:05:44;;;;;;;4.93;4.17;;;;;;;21.67;59.82;97419.47;10382713;28;20498;-33
2023/06/23 09:10:44;;;;;;;5.57;3.20;;;;;;;21.64;59.84;97430.50;10380656;28;20395;-32
2023/06/23 09:15:48;;;;;;;7.00;4.88;;;;;;;21.64;59.84;97430.50;10375508;28;20034;-32
2023/06/23 09:20:50;;;;;;;6.38;3.58;;;;;;;21.63;59.86;97428.78;10374797;28;20057;-32
2023/06/23 09:25:54;;;;;;;5.65;4.25;;;;;;;21.64;59.93;97433.03;10369841;28;20026;-31
2023/06/23 09:30:58;;;;;;;7.50;4.70;;;;;;;21.75;58.43;97431.38;10367761;28;20474;-31
2023/06/23 09:36:04;;;;;;;7.13;4.30;;;;;;;21.88;59.26;97425.38;10373822;28;20060;-32
2023/06/23 09:41:09;;;;;;;4.77;4.10;;;;;;;21.87;59.42;97433.03;10370657;28;20038;-31
2023/06/23 09:46:12;;;;;;;5.88;4.18;;;;;;;21.78;59.43;97433.91;10378402;28;20037;-32
2023/06/23 09:51:13;;;;;;;8.45;5.38;;;;;;;21.70;59.88;97430.53;10382138;28;20053;-31
2023/06/23 09:56:18;;;;;;;7.82;5.18;;;;;;;21.66;59.58;97433.06;10366368;28;20157;-32
2023/06/23 10:01:19;;;;;;;8.15;4.93;;;;;;;21.64;59.77;97434.75;10382231;28;20077;-32
2023/06/23 10:06:29;;;;;;;5.50;4.68;;;;;;;21.63;59.64;97436.44;10374337;28;20044;-32
2023/06/23 10:11:36;;;;;;;6.75;4.85;;;;;;;21.63;59.72;97433.06;10382083;28;20068;-32
2023/06/23 10:16:41;;;;;;;4.57;3.72;;;;;;;21.69;61.20;97436.47;10365293;28;20041;-32
2023/06/23 10:21:43;;;;;;;5.35;4.07;;;;;;;21.87;60.64;97439.00;10380942;28;20026;-34
2023/06/23 10:26:45;;;;;;;6.35;3.78;;;;;;;21.90;60.11;97428.78;10386669;28;20026;-35
2023/06/23 10:31:46;;;;;;;4.95;3.72;;;;;;;21.80;59.90;97433.91;10385280;28;20029;-32
2023/06/23 10:36:51;;;;;;;4.80;4.28;;;;;;;21.71;59.60;97439.03;10369192;28;20076;-32
2023/06/23 10:41:53;;;;;;;5.00;3.85;;;;;;;21.66;59.61;97423.72;10371589;28;20310;-31
2023/06/23 10:46:53;;;;;;;4.35;3.67;;;;;;;21.64;59.79;97427.94;10380931;28;20486;-31
2023/06/23 10:51:54;;;;;;;5.57;3.95;;;;;;;21.63;59.66;97427.97;10379805;28;20087;-32
2023/06/23 10:56:55;;;;;;;5.93;3.92;;;;;;;21.61;59.55;97424.53;10370367;28;20029;-31
2023/06/23 11:02:01;;;;;;;4.87;3.30;;;;;;;21.63;59.60;97428.78;10370318;28;20037;-32
2023/06/23 11:07:02;;;;;;;6.20;3.00;;;;;;;21.85;61.13;97420.31;10378062;28;20470;-31
2023/06/23 11:12:29;;;;;;;5.95;3.65;;;;;;;21.91;60.63;97420.28;10380516;28;20038;-31
2023/06/23 11:17:38;;;;;;;;;;;;;;;21.85;60.59;97409.25;10386865;28;20052;-31
2023/06/23 11:22:40;;;;;;;6.20;3.67;;;;;;;21.76;60.05;97415.22;10372840;28;19928;-32
2023/06/23 11:27:41;;;;;;;6.20;3.20;;;;;;;21.70;59.91;97415.22;10387226;28;20061;-31
2023/06/23 11:32:43;;;;;;;6.77;3.87;;;;;;;21.68;59.83;97416.94;10377829;28;20049;-32
2023/06/23 11:37:44;;;;;;;8.63;4.30;;;;;;;21.67;59.76;97415.25;10379006;28;20033;-32
2023/06/23 11:42:45;;;;;;;8.65;3.67;;;;;;;21.69;59.89;97408.44;10371245;28;20033;-31
2023/06/23 11:47:50;;;;;;;8.48;4.65;;;;;;;21.65;60.10;97401.63;10385674;28;20154;-32
2023/06/23 11:52:52;;;;;;;7.45;3.50;;;;;;;21.80;60.83;97401.59;10364116;28;20038;-31
2023/06/23 11:57:53;;;;;;;6.53;3.75;;;;;;;21.94;61.62;97402.44;10384367;28;20125;-32
2023/06/23 12:02:54;;;;;;;7.03;3.78;;;;;;;21.86;60.54;97405.84;10378042;28;20033;-32
2023/06/23 12:07:55;;;;;;;8.07;3.28;;;;;;;21.73;59.71;97410.13;10383327;28;20026;-31
2023/06/23 12:12:58;;;;;;;9.60;5.13;;;;;;;21.70;59.74;97402.47;10378577;28;20490;-32
2023/06/23 12:17:58;;;;;;;9.18;5.82;;;;;;;21.69;59.58;97408.44;10374762;28;20112;-32
2023/06/23 12:23:02;;;;;;;9.43;5.57;;;;;;;21.67;59.58;97399.94;10376516;28;20120;-32
2023/06/23 12:28:05;;;;;;;7.25;5.10;;;;;;;21.67;59.66;97407.59;10368914;28;20029;-32
2023/06/23 12:33:16;;;;;;;7.03;4.80;;;;;;;21.66;59.66;97398.22;10359851;28;20057;-31
2023/06/23 12:38:17;;;;;;;5.80;4.28;;;;;;;21.75;60.58;97387.19;10367962;28;20122;-32
2023/06/23 12:43:19;;;;;;;5.55;4.32;;;;;;;21.92;60.43;97382.88;10377251;28;20501;-32
2023/06/23 12:48:21;;;;;;;8.15;4.30;;;;;;;21.92;59.78;97393.09;10378980;28;20052;-31
2023/06/23 12:53:21;;;;;;;4.45;3.47;;;;;;;21.80;60.00;97391.41;10373733;28;20037;-32
2023/06/23 12:58:22;;;;;;;8.02;4.38;;;;;;;21.73;59.72;97389.72;10374120;28;20037;-31
2023/06/23 13:03:22;;;;;;;6.40;3.70;;;;;;;21.69;59.94;97382.94;10374807;28;20026;-33
2023/06/23 13:08:23;;;;;;;4.30;3.13;;;;;;;21.73;59.70;97384.63;10367919;28;20026;-32
2023/06/23 13:13:24;;;;;;;5.35;3.58;;;;;;;21.68;59.78;97376.16;10382904;28;20284;-32
2023/06/23 13:18:24;;;;;;;7.87;3.70;;;;;;;21.68;60.00;97376.16;10390328;28;20021;-31
2023/06/23 13:23:24;;;;;;;6.07;3.90;;;;;;;21.67;59.84;97382.13;10393763;28;20531;-33
2023/06/23 13:28:25;;;;;;;5.90;3.30;;;;;;;21.88;60.70;97379.50;10395924;28;20033;-32
2023/06/23 13:33:25;;;;;;;4.47;3.40;;;;;;;21.96;60.13;97376.91;10383139;28;20030;-32
2023/06/23 13:38:26;;;;;;;3.78;3.47;;;;;;;21.85;60.15;97387.16;10387398;28;20026;-32
2023/06/23 13:43:26;;;;;;;4.17;3.10;;;;;;;21.76;59.52;97384.63;10389334;28;20121;-31
2023/06/23 13:48:26;;;;;;;6.43;3.37;;;;;;;21.70;59.57;97384.63;10387555;28;20295;-32
2023/06/23 13:53:27;;;;;;;3.97;3.30;;;;;;;21.67;59.61;97387.22;10385663;28;20327;-31
2023/06/23 13:58:27;;;;;;;2.90;2.60;;;;;;;21.65;59.71;97381.25;10380064;28;20299;-32
2023/06/23 14:03:28;;;;;;;6.10;3.87;;;;;;;21.66;59.77;97385.47;10386800;28;20284;-32
2023/06/23 14:08:30;;;;;;;4.03;2.80;;;;;;;21.64;59.86;97379.50;10380107;28;20367;-32
2023/06/23 14:13:30;;;;;;;5.32;3.17;;;;;;;21.80;60.68;97381.22;10380304;28;20046;-32
2023/06/23 14:18:31;;;;;;;5.65;3.20;;;;;;;21.95;61.10;97388.81;10386607;28;20088;-32
2023/06/23 14:23:31;;;;;;;5.35;2.85;;;;;;;21.91;60.05;97387.13;10380307;28;20103;-31
2023/06/23 14:28:32;;;;;;;4.05;2.92;;;;;;;21.79;59.82;97387.16;10393686;28;20465;-32
2023/06/23 14:33:34;;;;;;;2.90;2.70;;;;;;;21.76;59.81;97396.53;10377219;28;20125;-31
2023/06/23 14:38:34;;;;;;;3.58;3.08;;;;;;;21.74;59.94;97395.69;10380297;28;20030;-31
2023/06/23 14:43:35;;;;;;;3.13;2.70;;;;;;;21.68;59.89;97391.44;10380206;28;20489;-31
2023/06/23 14:48:35;;;;;;;3.95;2.53;;;;;;;21.69;59.95;97405.88;10387063;28;20288;-32
2023/06/23 14:53:36;;;;;;;3.63;3.00;;;;;;;21.67;59.77;97409.28;10389387;28;20022;-31
2023/06/23 14:58:37;;;;;;;2.90;2.60;;;;;;;21.70;60.92;97399.06;10388860;28;20030;-32
2023/06/23 15:03:37;;;;;;;2.72;2.53;;;;;;;21.91;60.58;97404.97;10387782;28;20034;-32
2023/06/23 15:08:38;;;;;;;2.70;2.50;;;;;;;21.96;60.07;97398.16;10354447;28;20029;-31
2023/06/23 15:13:38;;;;;;;2.50;2.30;;;;;;;21.84;60.22;97403.31;10371440;28;20056;-32
2023/06/23 15:18:39;;;;;;;3.50;2.53;;;;;;;21.75;59.68;97413.53;10371230;28;20525;-32
2023/06/23 15:23:39;;;;;;;2.90;2.60;;;;;;;21.72;59.51;97410.13;10381583;28;20049;-32
2023/06/23 15:28:39;;;;;;;2.83;2.20;;;;;;;21.69;59.69;97410.13;10385066;28;20329;-31
2023/06/23 15:33:40;;;;;;;2.57;2.30;;;;;;;21.67;59.48;97407.59;10370771;28;20038;-32
2023/06/23 15:38:40;;;;;;;3.80;2.43;;;;;;;21.66;59.75;97402.50;10367958;28;20305;-32
2023/06/23 15:43:40;;;;;;;2.60;2.37;;;;;;;21.61;60.62;97402.47;10358038;28;20100;-31
2023/06/23 15:48:43;;;;;;;3.78;2.38;;;;;;;21.86;61.40;97400.75;10361093;28;20026;-32
2023/06/23 15:53:44;;;;;;;2.85;2.45;;;;;;;21.97;60.97;97394.75;10393741;28;20076;-31
2023/06/23 15:58:44;;;;;;;4.20;2.43;;;;;;;21.90;60.61;97397.34;10377187;28;20042;-31
2023/06/23 16:03:44;;;;;;;5.27;2.63;;;;;;;21.77;59.93;97381.22;10385671;28;20054;-32
2023/06/23 16:08:45;;;;;;;2.88;2.50;;;;;;;21.73;60.25;97384.63;10377121;28;20032;-31
2023/06/23 16:13:45;;;;;;;2.25;1.80;;;;;;;21.69;60.72;97388.03;10367669;28;20029;-32
2023/06/23 16:18:46;;;;;;;2.87;2.23;;;;;;;21.68;60.17;97381.25;10377462;28;20034;-32
2023/06/23 16:23:46;;;;;;;4.67;2.57;;;;;;;21.69;60.26;97388.03;10369815;28;20040;-31
2023/06/23 16:28:47;;;;;;;2.10;1.90;;;;;;;21.67;60.05;97394.00;10369183;28;20368;-31
2023/06/23 16:33:48;;;;;;;4.00;2.05;;;;;;;21.91;61.41;97388.84;10384513;28;20037;-31
2023/06/23 16:38:48;;;;;;;2.38;1.85;;;;;;;21.97;60.37;97389.66;10368658;28;20037;-32
2023/06/23 16:43:48;;;;;;;8.13;3.40;;;;;;;21.94;60.61;97389.69;10378308;28;20040;-32
2023/06/23 16:48:49;;;;;;;7.27;2.37;;;;;;;21.87;60.70;97384.59;10376221;28;20053;-31
2023/06/23 16:53:49;;;;;;;9.80;3.27;;;;;;;22.14;62.30;97387.91;10383491;28;20367;-31
2023/06/23 16:58:49;;;;;;;13.40;2.97;;;;;;;21.93;61.10;97392.22;10367237;28;20038;-32
2023/06/23 17:03:50;;;;;;;6.00;2.97;;;;;;;21.94;61.66;97392.22;10383199;28;20288;-31
2023/06/23 17:08:50;;;;;;;9.80;2.90;;;;;;;22.09;62.71;97394.75;10383799;28;20021;-31
2023/06/23 17:13:51;;;;;;;6.60;2.40;;;;;;;22.04;60.56;97395.56;10382265;28;20033;-32
2023/06/23 17:18:51;;;;;;;4.30;2.50;;;;;;;21.91;60.20;97399.03;10365745;28;20029;-31
2023/06/23 17:23:52;;;;;;;5.37;1.97;;;;;;;21.78;60.09;97398.22;10375472;28;20028;-32
2023/06/23 17:28:52;;;;;;;3.07;2.20;;;;;;;21.76;60.23;97409.25;10373912;28;20040;-32
2023/06/23 17:33:52;;;;;;;6.20;3.07;;;;;;;21.73;60.22;97404.19;10367703;28;20272;-32
2023/06/23 17:38:53;;;;;;;3.58;1.70;;;;;;;21.71;60.07;97411.81;10381721;28;20398;-32
2023/06/23 17:43:53;;;;;;;3.05;2.17;;;;;;;21.80;60.63;97403.31;10367314;28;20022;-31
2023/06/23 17:48:54;;;;;;;3.40;2.23;;;;;;;22.08;61.58;97422.78;10373323;28;20042;-31
2023/06/23 17:53:54;;;;;;;2.35;2.13;;;;;;;21.99;60.33;97427.91;10382436;28;20296;-32
2023/06/23 17:58:56;;;;;;;2.28;1.95;;;;;;;21.86;60.27;97429.66;10366662;28;20307;-32
2023/06/23 18:03:56;;;;;;;5.10;1.85;;;;;;;21.78;60.02;97426.25;10374704;28;20025;-33
2023/06/23 18:08:57;;;;;;;3.80;1.77;;;;;;;21.74;59.80;97426.28;10385970;28;20490;-31
2023/06/23 18:13:57;;;;;;;7.32;1.77;;;;;;;21.72;59.79;97423.72;10382402;28;20038;-32
2023/06/23 18:18:58;;;;;;;4.60;2.47;;;;;;;21.74;60.91;97423.72;10373680;28;20532;-31
2023/06/23 18:23:58;;;;;;;3.00;1.50;;;;;;;21.91;60.67;97415.16;10382421;28;20292;-32
2023/06/23 18:28:58;;;;;;;3.88;2.10;;;;;;;22.04;60.69;97426.19;10367774;28;20689;-32
2023/06/23 18:33:59;;;;;;;6.73;2.33;;;;;;;21.94;61.46;97425.38;10361081;28;20409;-32
2023/06/23 18:38:59;;;;;;;2.20;1.77;;;;;;;21.85;59.96;97424.53;10356140;28;20301;-32
2023/06/23 18:44:00;;;;;;;2.90;1.97;;;;;;;21.77;59.77;97432.22;10357620;28;20281;-31
2023/06/23 18:49:00;;;;;;;2.67;2.08;;;;;;;21.74;59.79;97428.81;10368358;28;20285;-30
2023/06/23 18:54:03;;;;;;;1.47;1.30;;;;;;;21.71;59.79;97422.03;10384492;28;20482;-32
2023/06/23 18:59:04;;;;;;;3.50;1.95;;;;;;;21.69;59.47;97426.28;10340365;28;20358;-32
2023/06/23 19:04:04;;;;;;;3.17;2.25;;;;;;;21.86;60.31;97427.09;10373413;28;20091;-31
2023/06/23 19:09:05;;;;;;;3.25;1.70;;;;;;;21.98;60.39;97427.06;10369898;28;20033;-31
2023/06/23 19:14:05;;;;;;;1.70;1.45;;;;;;;21.92;60.00;97427.09;10341858;28;20030;-37
2023/06/23 19:19:05;;;;;;;5.47;1.63;;;;;;;21.82;60.17;97438.13;10341922;28;20566;-32
2023/06/23 19:24:08;;;;;;;5.32;2.40;;;;;;;21.77;59.37;97436.44;10344762;28;20054;-32
2023/06/23 19:29:08;;;;;;;2.65;1.70;;;;;;;21.74;59.75;97431.38;10338964;28;20510;-31
2023/06/23 19:34:08;;;;;;;2.05;1.55;;;;;;;21.71;59.41;97456.88;10350323;28;20037;-32
2023/06/23 19:39:11;;;;;;;2.23;2.00;;;;;;;21.72;59.89;97449.19;10347635;28;20034;-32
2023/06/23 19:44:11;;;;;;;2.53;2.25;;;;;;;21.92;60.00;97452.59;10358045;28;20903;-31
2023/06/23 19:49:13;;;;;;;2.63;1.70;;;;;;;22.00;59.37;97461.06;10353876;28;20026;-32
2023/06/23 19:54:13;;;;;;;5.28;2.30;;;;;;;21.88;59.53;97471.28;10378478;28;20995;-32
2023/06/23 19:59:13;;;;;;;3.78;2.78;;;;;;;21.79;59.37;97475.53;10348091;28;20031;-32
2023/06/23 20:04:15;;;;;;;3.63;2.40;;;;;;;21.74;58.65;97487.44;10372545;28;20044;-32
2023/06/23 20:09:16;;;;;;;4.85;2.92;;;;;;;21.73;58.55;97494.22;10376337;28;20692;-31
2023/06/23 20:14:16;;;;;;;4.47;2.60;;;;;;;21.73;57.58;97501.88;10351721;28;20046;-32
2023/06/23 20:19:18;;;;;;;2.70;2.47;;;;;;;21.68;58.12;97495.09;10372436;28;20038;-31
2023/06/23 20:24:18;;;;;;;3.63;3.15;;;;;;;21.79;55.04;97494.22;10353753;28;20293;-32
2023/06/23 20:29:18;;;;;;;3.27;2.67;;;;;;;21.85;54.23;97501.03;10367246;28;20549;-32
2023/06/23 20:34:19;;;;;;;3.30;3.00;;;;;;;21.82;53.93;97504.41;10363577;28;20288;-32
2023/06/23 20:39:20;;;;;;;4.32;3.38;;;;;;;21.77;54.13;97506.13;10350504;28;20297;-32
2023/06/23 20:44:20;;;;;;;3.17;2.88;;;;;;;21.72;54.24;97515.47;10328476;28;20034;-32
2023/06/23 20:49:23;;;;;;;3.70;3.00;;;;;;;21.68;53.61;97506.16;10345347;28;20441;-32
2023/06/23 20:54:23;;;;;;;3.42;3.13;;;;;;;21.65;54.29;97516.31;10374416;28;20350;-32
2023/06/23 20:59:25;;;;;;;3.75;3.03;;;;;;;21.67;53.21;97512.09;10378056;28;20071;-32
2023/06/23 21:04:26;;;;;;;4.68;3.55;;;;;;;21.61;52.99;97513.75;10380689;28;20087;-31
2023/06/23 21:09:26;;;;;;;4.57;3.07;;;;;;;21.66;53.70;97510.38;10355641;28;20033;-32
2023/06/23 21:14:27;;;;;;;3.53;2.92;;;;;;;21.63;52.39;97510.34;10370982;28;20040;-32
2023/06/23 21:19:27;;;;;;;4.72;3.10;;;;;;;21.45;53.07;97502.69;10372044;28;20038;-32
2023/06/23 21:24:28;;;;;;;3.63;3.33;;;;;;;21.43;52.62;97517.16;10376310;28;20420;-32
2023/06/23 21:29:28;;;;;;;4.07;3.03;;;;;;;21.43;52.59;97506.97;10372805;28;20030;-31
2023/06/23 21:34:29;;;;;;;3.65;3.38;;;;;;;21.46;52.47;97504.41;10366990;28;20793;-31
2023/06/23 21:39:31;;;;;;;3.33;2.90;;;;;;;20.75;54.63;97513.56;10384278;28;20109;-32
2023/06/23 21:44:31;;;;;;;4.07;3.67;;;;;;;20.43;54.57;97510.03;10390619;28;20508;-31
2023/06/23 21:49:32;;;;;;;3.80;3.03;;;;;;;20.26;54.68;97507.38;10392129;28;20026;-31
2023/06/23 21:54:32;;;;;;;4.63;3.88;;;;;;;20.19;54.65;97503.09;10371843;28;20804;-31
2023/06/23 21:59:32;;;;;;;8.23;3.87;;;;;;;20.13;54.74;97503.06;10391005;28;20517;-32
2023/06/23 22:04:33;;;;;;;7.83;3.57;;;;;;;20.05;55.27;97499.63;10359821;28;20284;-32
2023/06/23 22:09:33;;;;;;;4.60;3.20;;;;;;;20.06;54.82;97506.41;10374609;28;20638;-32
2023/06/23 22:14:34;;;;;;;4.88;3.80;;;;;;;19.88;54.75;97509.66;10377440;28;20030;-31
2023/06/23 22:19:36;;;;;;;6.90;3.40;;;;;;;19.91;54.58;97498.69;10360572;28;20025;-31
2023/06/23 22:24:37;;;;;;;3.83;3.40;;;;;;;19.79;54.98;97496.03;10384938;28;20890;-31
2023/06/23 22:29:37;;;;;;;3.80;3.40;;;;;;;19.78;54.61;97499.41;10356404;28;20062;-32
2023/06/23 22:34:38;;;;;;;7.18;3.60;;;;;;;19.67;54.93;97495.94;10372480;28;20034;-31
2023/06/23 22:39:38;;;;;;;4.90;3.33;;;;;;;19.70;54.74;97490.88;10378655;28;20029;-31
2023/06/23 22:44:39;;;;;;;5.43;3.30;;;;;;;19.77;54.38;97490.94;10384421;28;20022;-31
2023/06/23 22:49:39;;;;;;;4.15;3.20;;;;;;;19.65;55.17;97484.91;10371938;28;20029;-32
2023/06/23 22:54:39;;;;;;;6.73;3.33;;;;;;;19.50;55.38;97484.81;10384894;28;20036;-31
2023/06/23 22:59:40;;;;;;;6.15;4.13;;;;;;;19.47;55.83;97487.31;10379564;28;20054;-32
2023/06/23 23:04:41;;;;;;;3.80;3.50;;;;;;;19.52;55.24;97475.50;10376450;28;20037;-31
2023/06/23 23:09:41;;;;;;;4.25;3.85;;;;;;;19.50;55.26;97467.03;10371228;28;20109;-31
2023/06/23 23:14:42;;;;;;;6.33;3.47;;;;;;;19.39;55.44;97472.00;10380632;28;20084;-31
2023/06/23 23:19:42;;;;;;;5.03;3.47;;;;;;;19.41;55.88;97466.97;10381712;28;20303;-31
2023/06/23 23:24:43;;;;;;;5.33;3.90;;;;;;;19.43;55.62;97470.34;10359287;28;20301;-31